sensor_id;sensor_type;location;lat;lon;timestamp;pressure;altitude;pressure_sealevel;temperature;humidity
23619;BME280;18207;32.078;34.818;2023-03-05T00:02:04;100853.94;;;25.19;37.37
23619;BME280;18207;32.078;34.818;2023-03-05T00:04:35;100851.47;;;25.17;37.32
23619;BME280;18207;32.078;34.818;2023-03-05T00:07:06;100845.81;;;25.17;37.49
23619;BME280;18207;32.078;34.818;2023-03-05T00:09:41;100853.84;;;25.15;37.26
23619;BME280;18207;32.078;34.818;2023-03-05T00:12:11;100845.75;;;25.14;37.41
23619;BME280;18207;32.078;34.818;2023-03-05T00:14:42;100840.50;;;25.12;37.23
23619;BME280;18207;32.078;34.818;2023-03-05T00:17:12;100848.09;;;25.12;37.40
23619;BME280;18207;32.078;34.818;2023-03-05T00:19:43;100847.66;;;25.10;37.13
23619;BME280;18207;32.078;34.818;2023-03-05T00:22:13;100847.66;;;25.10;37.35
23619;BME280;18207;32.078;34.818;2023-03-05T00:24:45;100841.56;;;25.08;37.40
23619;BME280;18207;32.078;34.818;2023-03-05T00:27:19;100851.63;;;25.09;37.56
23619;BME280;18207;32.078;34.818;2023-03-05T00:29:49;100843.09;;;25.06;37.03
23619;BME280;18207;32.078;34.818;2023-03-05T00:32:20;100839.47;;;25.05;37.31
23619;BME280;18207;32.078;34.818;2023-03-05T00:34:50;100837.81;;;25.04;37.41
23619;BME280;18207;32.078;34.818;2023-03-05T00:37:20;100832.56;;;25.03;37.06
23619;BME280;18207;32.078;34.818;2023-03-05T00:39:53;100826.94;;;25.03;37.27
23619;BME280;18207;32.078;34.818;2023-03-05T00:42:24;100819.69;;;25.02;37.06
23619;BME280;18207;32.078;34.818;2023-03-05T00:44:54;100817.25;;;25.00;37.17
23619;BME280;18207;32.078;34.818;2023-03-05T00:47:24;100805.56;;;24.98;37.11
23619;BME280;18207;32.078;34.818;2023-03-05T00:49:55;100794.31;;;24.98;37.20
23619;BME280;18207;32.078;34.818;2023-03-05T00:52:26;100793.84;;;24.96;37.16
23619;BME280;18207;32.078;34.818;2023-03-05T00:55:01;100792.22;;;24.95;37.31
23619;BME280;18207;32.078;34.818;2023-03-05T00:57:31;100786.97;;;24.94;37.35
23619;BME280;18207;32.078;34.818;2023-03-05T01:00:01;100783.69;;;24.92;37.08
23619;BME280;18207;32.078;34.818;2023-03-05T01:02:32;100778.06;;;24.92;36.87
23619;BME280;18207;32.078;34.818;2023-03-05T01:05:11;100785.69;;;24.91;36.81
23619;BME280;18207;32.078;34.818;2023-03-05T01:07:42;100780.41;;;24.90;36.92
23619;BME280;18207;32.078;34.818;2023-03-05T01:10:14;100778.44;;;24.90;37.28
23619;BME280;18207;32.078;34.818;2023-03-05T01:12:44;100765.56;;;24.89;37.11
23619;BME280;18207;32.078;34.818;2023-03-05T01:15:15;100772.34;;;24.88;37.12
23619;BME280;18207;32.078;34.818;2023-03-05T01:17:46;100774.00;;;24.89;37.14
23619;BME280;18207;32.078;34.818;2023-03-05T01:20:18;100771.53;;;24.88;36.82
23619;BME280;18207;32.078;34.818;2023-03-05T01:22:49;100774.34;;;24.88;36.77
23619;BME280;18207;32.078;34.818;2023-03-05T01:25:23;100765.91;;;24.88;36.84
23619;BME280;18207;32.078;34.818;2023-03-05T01:27:55;100769.09;;;24.86;36.96
23619;BME280;18207;32.078;34.818;2023-03-05T01:30:26;100761.03;;;24.85;36.85
23619;BME280;18207;32.078;34.818;2023-03-05T01:32:56;100767.84;;;24.84;37.16
23619;BME280;18207;32.078;34.818;2023-03-05T01:35:28;100766.19;;;24.83;36.92
23619;BME280;18207;32.078;34.818;2023-03-05T01:37:58;100760.56;;;24.83;36.86
23619;BME280;18207;32.078;34.818;2023-03-05T01:40:31;100769.00;;;24.83;36.92
23619;BME280;18207;32.078;34.818;2023-03-05T01:43:25;100765.72;;;24.81;36.56
23619;BME280;18207;32.078;34.818;2023-03-05T01:46:32;100766.09;;;24.79;37.14
23619;BME280;18207;32.078;34.818;2023-03-05T01:49:30;100759.22;;;24.77;36.81
23619;BME280;18207;32.078;34.818;2023-03-05T01:52:09;100764.84;;;24.77;36.56
23619;BME280;18207;32.078;34.818;2023-03-05T01:54:50;100763.22;;;24.76;36.63
23619;BME280;18207;32.078;34.818;2023-03-05T01:57:27;100760.03;;;24.77;36.97
23619;BME280;18207;32.078;34.818;2023-03-05T02:00:06;100761.22;;;24.76;36.73
23619;BME280;18207;32.078;34.818;2023-03-05T02:02:38;100765.19;;;24.75;36.52
23619;BME280;18207;32.078;34.818;2023-03-05T02:05:17;100764.00;;;24.76;36.50
23619;BME280;18207;32.078;34.818;2023-03-05T02:07:54;100768.00;;;24.75;36.58
23619;BME280;18207;32.078;34.818;2023-03-05T02:10:28;100764.38;;;24.75;36.61
23619;BME280;18207;32.078;34.818;2023-03-05T02:13:03;100765.56;;;24.74;36.54
23619;BME280;18207;32.078;34.818;2023-03-05T02:15:35;100766.75;;;24.73;36.79
23619;BME280;18207;32.078;34.818;2023-03-05T02:18:08;100777.59;;;24.74;36.53
23619;BME280;18207;32.078;34.818;2023-03-05T02:20:48;100774.34;;;24.72;36.68
23619;BME280;18207;32.078;34.818;2023-03-05T02:23:22;100764.31;;;24.71;36.58
23619;BME280;18207;32.078;34.818;2023-03-05T02:25:52;100763.47;;;24.71;36.55
23619;BME280;18207;32.078;34.818;2023-03-05T02:28:27;100759.03;;;24.70;36.28
23619;BME280;18207;32.078;34.818;2023-03-05T02:31:00;100756.22;;;24.70;36.56
23619;BME280;18207;32.078;34.818;2023-03-05T02:33:30;100755.41;;;24.69;36.48
23619;BME280;18207;32.078;34.818;2023-03-05T02:36:01;100763.84;;;24.69;36.45
23619;BME280;18207;32.078;34.818;2023-03-05T02:38:33;100763.00;;;24.69;36.40
23619;BME280;18207;32.078;34.818;2023-03-05T02:41:04;100767.84;;;24.68;36.43
23619;BME280;18207;32.078;34.818;2023-03-05T02:43:34;100767.00;;;24.68;36.18
23619;BME280;18207;32.078;34.818;2023-03-05T02:46:06;100767.84;;;24.68;35.98
23619;BME280;18207;32.078;34.818;2023-03-05T02:48:36;100767.38;;;24.66;35.92
23619;BME280;18207;32.078;34.818;2023-03-05T02:51:09;100770.56;;;24.65;36.14
23619;BME280;18207;32.078;34.818;2023-03-05T02:53:41;100772.19;;;24.66;35.95
23619;BME280;18207;32.078;34.818;2023-03-05T02:56:12;100761.28;;;24.64;36.14
23619;BME280;18207;32.078;34.818;2023-03-05T02:58:43;100765.28;;;24.63;35.92
23619;BME280;18207;32.078;34.818;2023-03-05T03:01:14;100766.13;;;24.64;36.23
23619;BME280;18207;32.078;34.818;2023-03-05T03:03:44;100769.25;;;24.62;36.17
23619;BME280;18207;32.078;34.818;2023-03-05T03:06:14;100766.44;;;24.62;36.04
23619;BME280;18207;32.078;34.818;2023-03-05T03:08:47;100765.66;;;24.62;35.94
23619;BME280;18207;32.078;34.818;2023-03-05T03:11:18;100761.22;;;24.61;35.78
23619;BME280;18207;32.078;34.818;2023-03-05T03:13:48;100764.84;;;24.61;36.14
23619;BME280;18207;32.078;34.818;2023-03-05T03:16:19;100766.03;;;24.60;35.68
23619;BME280;18207;32.078;34.818;2023-03-05T03:18:49;100757.59;;;24.60;35.84
23619;BME280;18207;32.078;34.818;2023-03-05T03:21:23;100763.22;;;24.60;35.94
23619;BME280;18207;32.078;34.818;2023-03-05T03:23:56;100760.75;;;24.59;35.69
23619;BME280;18207;32.078;34.818;2023-03-05T03:26:26;100755.13;;;24.59;35.73
23619;BME280;18207;32.078;34.818;2023-03-05T03:28:57;100760.75;;;24.59;35.56
23619;BME280;18207;32.078;34.818;2023-03-05T03:31:27;100756.31;;;24.58;36.13
23619;BME280;18207;32.078;34.818;2023-03-05T03:33:57;100751.88;;;24.57;35.70
23619;BME280;18207;32.078;34.818;2023-03-05T03:36:28;100748.25;;;24.56;35.92
23619;BME280;18207;32.078;34.818;2023-03-05T03:39:01;100748.25;;;24.56;35.71
23619;BME280;18207;32.078;34.818;2023-03-05T03:41:32;100739.81;;;24.56;35.59
23619;BME280;18207;32.078;34.818;2023-03-05T03:44:02;100743.00;;;24.55;35.46
23619;BME280;18207;32.078;34.818;2023-03-05T03:46:34;100750.59;;;24.54;35.56
23619;BME280;18207;32.078;34.818;2023-03-05T03:49:06;100748.63;;;24.55;35.52
23619;BME280;18207;32.078;34.818;2023-03-05T03:51:36;100738.19;;;24.55;35.71
23619;BME280;18207;32.078;34.818;2023-03-05T03:54:09;100746.25;;;24.57;35.53
23619;BME280;18207;32.078;34.818;2023-03-05T03:56:40;100745.44;;;24.56;35.47
23619;BME280;18207;32.078;34.818;2023-03-05T03:59:12;100737.38;;;24.55;35.60
23619;BME280;18207;32.078;34.818;2023-03-05T04:01:43;100730.13;;;24.54;35.48
23619;BME280;18207;32.078;34.818;2023-03-05T04:04:15;100724.50;;;24.54;35.44
23619;BME280;18207;32.078;34.818;2023-03-05T04:06:45;100724.50;;;24.54;35.54
23619;BME280;18207;32.078;34.818;2023-03-05T04:09:17;100708.00;;;24.52;35.53
23619;BME280;18207;32.078;34.818;2023-03-05T04:11:47;100722.88;;;24.53;35.60
23619;BME280;18207;32.078;34.818;2023-03-05T04:14:20;100713.19;;;24.50;35.42
23619;BME280;18207;32.078;34.818;2023-03-05T04:16:51;100712.00;;;24.51;35.61
23619;BME280;18207;32.078;34.818;2023-03-05T04:19:22;100711.53;;;24.49;35.30
23619;BME280;18207;32.078;34.818;2023-03-05T04:21:52;100710.38;;;24.50;35.31
23619;BME280;18207;32.078;34.818;2023-03-05T04:24:25;100707.91;;;24.49;35.51
23619;BME280;18207;32.078;34.818;2023-03-05T04:26:56;100707.91;;;24.49;35.36
23619;BME280;18207;32.078;34.818;2023-03-05T04:29:27;100693.84;;;24.49;35.38
23619;BME280;18207;32.078;34.818;2023-03-05T04:31:57;100696.66;;;24.49;35.41
23619;BME280;18207;32.078;34.818;2023-03-05T04:34:28;100691.88;;;24.49;35.30
23619;BME280;18207;32.078;34.818;2023-03-05T04:36:59;100694.31;;;24.51;35.61
23619;BME280;18207;32.078;34.818;2023-03-05T04:39:32;100699.94;;;24.51;35.52
23619;BME280;18207;32.078;34.818;2023-03-05T04:42:03;100708.00;;;24.52;35.49
23619;BME280;18207;32.078;34.818;2023-03-05T04:44:34;100704.38;;;24.52;35.03
23619;BME280;18207;32.078;34.818;2023-03-05T04:47:05;100707.66;;;24.54;35.20
23619;BME280;18207;32.078;34.818;2023-03-05T04:49:35;100712.53;;;24.57;35.61
23619;BME280;18207;32.078;34.818;2023-03-05T04:52:05;100711.00;;;24.59;35.75
23619;BME280;18207;32.078;34.818;2023-03-05T04:54:37;100711.06;;;24.63;35.40
23619;BME280;18207;32.078;34.818;2023-03-05T04:57:09;100708.34;;;24.66;35.35
23619;BME280;18207;32.078;34.818;2023-03-05T04:59:39;100705.63;;;24.70;35.37
23619;BME280;18207;32.078;34.818;2023-03-05T05:02:10;100711.31;;;24.73;35.74
23619;BME280;18207;32.078;34.818;2023-03-05T05:04:41;100707.41;;;24.78;35.45
23619;BME280;18207;32.078;34.818;2023-03-05T05:07:12;100707.97;;;24.83;35.65
23619;BME280;18207;32.078;34.818;2023-03-05T05:09:46;100703.72;;;24.89;35.82
23619;BME280;18207;32.078;34.818;2023-03-05T05:12:16;100698.63;;;24.95;35.97
23619;BME280;18207;32.078;34.818;2023-03-05T05:14:47;100699.16;;;25.00;35.83
23619;BME280;18207;32.078;34.818;2023-03-05T05:17:17;100678.78;;;25.06;35.71
23619;BME280;18207;32.078;34.818;2023-03-05T05:19:48;100687.44;;;25.13;35.96
23619;BME280;18207;32.078;34.818;2023-03-05T05:22:18;100686.78;;;25.20;35.85
23619;BME280;18207;32.078;34.818;2023-03-05T05:24:52;100690.53;;;25.27;35.89
23619;BME280;18207;32.078;34.818;2023-03-05T05:27:23;100695.16;;;25.35;35.85
23619;BME280;18207;32.078;34.818;2023-03-05T05:29:53;100705.38;;;25.43;35.86
23619;BME280;18207;32.078;34.818;2023-03-05T05:32:24;100708.78;;;25.52;35.81
23619;BME280;18207;32.078;34.818;2023-03-05T05:34:55;100707.75;;;25.60;36.18
23619;BME280;18207;32.078;34.818;2023-03-05T05:37:28;100708.34;;;25.69;35.87
23619;BME280;18207;32.078;34.818;2023-03-05T05:40:01;100710.59;;;25.79;36.18
23619;BME280;18207;32.078;34.818;2023-03-05T05:42:35;100722.06;;;25.90;36.00
23619;BME280;18207;32.078;34.818;2023-03-05T05:45:07;100733.53;;;26.00;35.97
23619;BME280;18207;32.078;34.818;2023-03-05T05:47:38;100743.38;;;26.09;36.06
23619;BME280;18207;32.078;34.818;2023-03-05T05:50:11;100749.69;;;26.22;36.06
23619;BME280;18207;32.078;34.818;2023-03-05T05:52:42;100750.25;;;26.31;36.07
23619;BME280;18207;32.078;34.818;2023-03-05T05:55:15;100742.00;;;26.41;36.12
23619;BME280;18207;32.078;34.818;2023-03-05T05:57:46;100744.19;;;26.51;35.95
23619;BME280;18207;32.078;34.818;2023-03-05T06:00:18;100748.84;;;26.63;35.76
23619;BME280;18207;32.078;34.818;2023-03-05T06:02:49;100747.78;;;26.71;35.92
23619;BME280;18207;32.078;34.818;2023-03-05T06:05:19;100740.69;;;26.80;35.57
23619;BME280;18207;32.078;34.818;2023-03-05T06:07:49;100749.69;;;26.89;35.66
23619;BME280;18207;32.078;34.818;2023-03-05T06:10:22;100749.03;;;26.99;35.92
23619;BME280;18207;32.078;34.818;2023-03-05T06:12:52;100769.00;;;27.09;35.85
23619;BME280;18207;32.078;34.818;2023-03-05T06:15:24;100759.50;;;27.21;35.63
23619;BME280;18207;32.078;34.818;2023-03-05T06:17:54;100743.94;;;27.30;35.80
23619;BME280;18207;32.078;34.818;2023-03-05T06:20:24;100757.38;;;27.40;35.71
23619;BME280;18207;32.078;34.818;2023-03-05T06:22:55;100755.50;;;27.51;35.65
23619;BME280;18207;32.078;34.818;2023-03-05T06:25:27;100753.63;;;27.62;35.97
23619;BME280;18207;32.078;34.818;2023-03-05T06:27:57;100749.38;;;27.72;36.10
23619;BME280;18207;32.078;34.818;2023-03-05T06:30:28;100756.78;;;27.83;35.87
23619;BME280;18207;32.078;34.818;2023-03-05T06:32:58;100751.28;;;27.93;35.96
23619;BME280;18207;32.078;34.818;2023-03-05T06:35:28;100757.03;;;28.04;35.98
23619;BME280;18207;32.078;34.818;2023-03-05T06:37:59;100757.19;;;28.14;35.84
23619;BME280;18207;32.078;34.818;2023-03-05T06:40:31;100756.91;;;28.26;35.79
23619;BME280;18207;32.078;34.818;2023-03-05T06:43:01;100744.91;;;28.36;35.88
23619;BME280;18207;32.078;34.818;2023-03-05T06:45:32;100742.19;;;28.47;35.68
23619;BME280;18207;32.078;34.818;2023-03-05T06:48:02;100739.47;;;28.57;35.51
23619;BME280;18207;32.078;34.818;2023-03-05T06:50:35;100734.72;;;28.68;35.82
23619;BME280;18207;32.078;34.818;2023-03-05T06:53:05;100729.13;;;28.78;35.85
23619;BME280;18207;32.078;34.818;2023-03-05T06:55:39;100744.63;;;28.88;35.83
23619;BME280;18207;32.078;34.818;2023-03-05T06:58:10;100737.81;;;28.96;35.60
23619;BME280;18207;32.078;34.818;2023-03-05T07:00:40;100728.56;;;29.06;35.76
23619;BME280;18207;32.078;34.818;2023-03-05T07:03:13;100727.84;;;29.16;35.66
23619;BME280;18207;32.078;34.818;2023-03-05T07:05:44;100721.00;;;29.24;35.70
23619;BME280;18207;32.078;34.818;2023-03-05T07:08:15;100725.94;;;29.34;35.37
23619;BME280;18207;32.078;34.818;2023-03-05T07:10:47;100727.66;;;29.45;35.32
23619;BME280;18207;32.078;34.818;2023-03-05T07:13:17;100723.25;;;29.54;35.49
23619;BME280;18207;32.078;34.818;2023-03-05T07:15:48;100726.94;;;29.65;35.15
23619;BME280;18207;32.078;34.818;2023-03-05T07:18:18;100712.84;;;29.76;35.06
23619;BME280;18207;32.078;34.818;2023-03-05T07:20:49;100711.66;;;29.87;34.99
23619;BME280;18207;32.078;34.818;2023-03-05T07:23:20;100716.19;;;29.99;35.19
23619;BME280;18207;32.078;34.818;2023-03-05T07:25:52;100709.34;;;30.10;34.65
23619;BME280;18207;32.078;34.818;2023-03-05T07:28:23;100702.47;;;30.22;34.50
23619;BME280;18207;32.078;34.818;2023-03-05T07:30:57;100708.56;;;30.34;34.07
23619;BME280;18207;32.078;34.818;2023-03-05T07:33:29;100699.25;;;30.44;34.18
23619;BME280;18207;32.078;34.818;2023-03-05T07:36:00;100697.28;;;30.55;33.75
23619;BME280;18207;32.078;34.818;2023-03-05T07:38:32;100696.06;;;30.66;33.69
23619;BME280;18207;32.078;34.818;2023-03-05T07:41:06;100690.38;;;30.77;33.65
23619;BME280;18207;32.078;34.818;2023-03-05T07:43:36;100683.47;;;30.88;33.52
23619;BME280;18207;32.078;34.818;2023-03-05T07:46:10;100676.56;;;31.00;33.35
23619;BME280;18207;32.078;34.818;2023-03-05T07:48:41;100675.75;;;31.10;33.32
23619;BME280;18207;32.078;34.818;2023-03-05T07:51:15;100674.91;;;31.20;32.63
23619;BME280;18207;32.078;34.818;2023-03-05T07:53:46;100666.38;;;31.30;32.58
23619;BME280;18207;32.078;34.818;2023-03-05T07:56:24;100667.97;;;31.41;32.64
23619;BME280;18207;32.078;34.818;2023-03-05T07:58:54;100661.84;;;31.50;33.13
23619;BME280;18207;32.078;34.818;2023-03-05T08:01:24;100653.31;;;31.60;32.52
23619;BME280;18207;32.078;34.818;2023-03-05T08:03:55;100651.63;;;31.70;32.50
23619;BME280;18207;32.078;34.818;2023-03-05T08:06:25;100647.09;;;31.79;32.26
23619;BME280;18207;32.078;34.818;2023-03-05T08:08:56;100651.13;;;31.89;32.16
23619;BME280;18207;32.078;34.818;2023-03-05T08:11:29;100643.75;;;31.98;32.04
23619;BME280;18207;32.078;34.818;2023-03-05T08:13:59;100644.13;;;32.07;32.07
23619;BME280;18207;32.078;34.818;2023-03-05T08:16:31;100638.78;;;32.16;31.49
23619;BME280;18207;32.078;34.818;2023-03-05T08:19:02;100639.13;;;32.25;31.45
23619;BME280;18207;32.078;34.818;2023-03-05T08:21:35;100635.41;;;32.35;31.20
23619;BME280;18207;32.078;34.818;2023-03-05T08:24:07;100629.22;;;32.43;31.17
23619;BME280;18207;32.078;34.818;2023-03-05T08:26:41;100633.22;;;32.53;31.38
23619;BME280;18207;32.078;34.818;2023-03-05T08:29:11;100637.63;;;32.61;31.37
23619;BME280;18207;32.078;34.818;2023-03-05T08:31:45;100626.56;;;32.70;30.79
23619;BME280;18207;32.078;34.818;2023-03-05T08:34:17;100632.19;;;32.77;30.93
23619;BME280;18207;32.078;34.818;2023-03-05T08:36:47;100624.41;;;32.84;30.90
23619;BME280;18207;32.078;34.818;2023-03-05T08:39:18;100615.38;;;32.93;30.65
23619;BME280;18207;32.078;34.818;2023-03-05T08:41:50;100614.06;;;33.01;31.03
23619;BME280;18207;32.078;34.818;2023-03-05T08:44:21;100608.69;;;33.06;31.21
23619;BME280;18207;32.078;34.818;2023-03-05T08:46:51;100607.84;;;33.13;30.41
23619;BME280;18207;32.078;34.818;2023-03-05T08:49:22;100592.69;;;33.19;30.66
23619;BME280;18207;32.078;34.818;2023-03-05T08:51:53;100599.56;;;33.25;30.26
23619;BME280;18207;32.078;34.818;2023-03-05T08:54:23;100601.50;;;33.31;30.03
23619;BME280;18207;32.078;34.818;2023-03-05T08:56:55;100603.47;;;33.38;29.90
23619;BME280;18207;32.078;34.818;2023-03-05T08:59:26;100594.00;;;33.44;30.37
23619;BME280;18207;32.078;34.818;2023-03-05T09:01:59;100582.50;;;33.51;30.16
23619;BME280;18207;32.078;34.818;2023-03-05T09:04:30;100577.94;;;33.57;29.51
23619;BME280;18207;32.078;34.818;2023-03-05T09:07:00;100575.44;;;33.63;29.30
23619;BME280;18207;32.078;34.818;2023-03-05T09:09:30;100577.84;;;33.68;29.30
23619;BME280;18207;32.078;34.818;2023-03-05T09:12:05;100583.84;;;33.73;29.62
23619;BME280;18207;32.078;34.818;2023-03-05T09:14:38;100568.72;;;33.76;29.42
23619;BME280;18207;32.078;34.818;2023-03-05T09:17:09;100564.59;;;33.81;29.32
23619;BME280;18207;32.078;34.818;2023-03-05T09:19:40;100555.97;;;33.84;29.39
23619;BME280;18207;32.078;34.818;2023-03-05T09:22:11;100554.31;;;33.87;28.61
23619;BME280;18207;32.078;34.818;2023-03-05T09:24:41;100561.59;;;33.91;28.99
23619;BME280;18207;32.078;34.818;2023-03-05T09:27:13;100560.72;;;33.94;28.58
23619;BME280;18207;32.078;34.818;2023-03-05T09:29:43;100549.22;;;33.98;28.16
23619;BME280;18207;32.078;34.818;2023-03-05T09:32:15;100545.97;;;33.99;28.40
23619;BME280;18207;32.078;34.818;2023-03-05T09:34:45;100539.41;;;34.02;28.17
23619;BME280;18207;32.078;34.818;2023-03-05T09:37:15;100535.66;;;34.05;28.76
23619;BME280;18207;32.078;34.818;2023-03-05T09:39:45;100535.63;;;34.08;28.20
23619;BME280;18207;32.078;34.818;2023-03-05T09:43:00;100538.88;;;34.10;28.31
23619;BME280;18207;32.078;34.818;2023-03-05T09:45:40;100517.66;;;34.11;28.01
23619;BME280;18207;32.078;34.818;2023-03-05T09:48:18;100515.97;;;34.14;27.85
23619;BME280;18207;32.078;34.818;2023-03-05T09:50:53;100513.94;;;34.14;27.81
23619;BME280;18207;32.078;34.818;2023-03-05T09:53:39;100515.56;;;34.15;28.21
23619;BME280;18207;32.078;34.818;2023-03-05T09:56:17;100499.22;;;34.16;28.33
23619;BME280;18207;32.078;34.818;2023-03-05T09:58:54;100499.63;;;34.18;27.56
23619;BME280;18207;32.078;34.818;2023-03-05T10:01:30;100496.31;;;34.19;27.50
23619;BME280;18207;32.078;34.818;2023-03-05T10:04:12;100497.47;;;34.22;27.95
23619;BME280;18207;32.078;34.818;2023-03-05T10:06:57;100482.81;;;34.23;27.64
23619;BME280;18207;32.078;34.818;2023-03-05T10:09:45;100486.91;;;34.22;27.56
23619;BME280;18207;32.078;34.818;2023-03-05T10:12:26;100486.44;;;34.24;27.48
23619;BME280;18207;32.078;34.818;2023-03-05T10:15:00;100469.31;;;34.24;27.25
23619;BME280;18207;32.078;34.818;2023-03-05T10:17:55;100466.91;;;34.22;27.73
23619;BME280;18207;32.078;34.818;2023-03-05T10:20:48;100462.91;;;34.20;27.74
23619;BME280;18207;32.078;34.818;2023-03-05T10:23:32;100464.53;;;34.17;27.18
23619;BME280;18207;32.078;34.818;2023-03-05T10:26:21;100467.06;;;34.15;27.04
23619;BME280;18207;32.078;34.818;2023-03-05T10:29:17;100461.81;;;34.10;27.02
23619;BME280;18207;32.078;34.818;2023-03-05T10:32:16;100454.97;;;34.08;27.02
23619;BME280;18207;32.078;34.818;2023-03-05T10:35:16;100453.38;;;34.03;27.54
23619;BME280;18207;32.078;34.818;2023-03-05T10:40:52;100440.47;;;33.96;26.65
23619;BME280;18207;32.078;34.818;2023-03-05T10:43:33;100437.25;;;33.94;26.68
23619;BME280;18207;32.078;34.818;2023-03-05T10:46:11;100434.03;;;33.92;26.53
23619;BME280;18207;32.078;34.818;2023-03-05T10:48:50;100426.69;;;33.91;27.07
23619;BME280;18207;32.078;34.818;2023-03-05T10:51:38;100431.63;;;33.90;26.37
23619;BME280;18207;32.078;34.818;2023-03-05T10:54:21;100424.72;;;33.88;26.68
23619;BME280;18207;32.078;34.818;2023-03-05T10:57:07;100412.50;;;33.87;26.48
23619;BME280;18207;32.078;34.818;2023-03-05T10:59:48;100414.56;;;33.87;26.15
23619;BME280;18207;32.078;34.818;2023-03-05T11:02:21;100410.09;;;33.86;26.75
23619;BME280;18207;32.078;34.818;2023-03-05T11:04:54;100399.09;;;33.84;26.37
23619;BME280;18207;32.078;34.818;2023-03-05T11:07:36;100396.69;;;33.83;26.60
23619;BME280;18207;32.078;34.818;2023-03-05T11:10:18;100388.59;;;33.81;26.32
23619;BME280;18207;32.078;34.818;2023-03-05T11:12:49;100388.22;;;33.79;26.44
23619;BME280;18207;32.078;34.818;2023-03-05T11:15:28;100380.06;;;33.78;26.04
23619;BME280;18207;32.078;34.818;2023-03-05T11:18:16;100370.34;;;33.75;26.19
23619;BME280;18207;32.078;34.818;2023-03-05T11:20:50;100372.03;;;33.73;26.26
23619;BME280;18207;32.078;34.818;2023-03-05T11:23:22;100370.03;;;33.70;26.13
23619;BME280;18207;32.078;34.818;2023-03-05T11:25:59;100366.00;;;33.67;25.58
23619;BME280;18207;32.078;34.818;2023-03-05T11:28:54;100358.75;;;33.63;25.62
23619;BME280;18207;32.078;34.818;2023-03-05T11:31:28;100361.69;;;33.59;25.64
23619;BME280;18207;32.078;34.818;2023-03-05T11:34:02;100356.00;;;33.56;25.59
23619;BME280;18207;32.078;34.818;2023-03-05T11:36:36;100350.72;;;33.54;26.11
23619;BME280;18207;32.078;34.818;2023-03-05T11:39:15;100345.91;;;33.51;25.63
23619;BME280;18207;32.078;34.818;2023-03-05T11:41:49;100337.44;;;33.48;25.41
23619;BME280;18207;32.078;34.818;2023-03-05T11:44:25;100342.75;;;33.46;25.55
23619;BME280;18207;32.078;34.818;2023-03-05T11:47:00;100334.63;;;33.44;25.55
23619;BME280;18207;32.078;34.818;2023-03-05T11:49:32;100332.66;;;33.41;25.95
23619;BME280;18207;32.078;34.818;2023-03-05T11:52:14;100334.31;;;33.39;25.48
23619;BME280;18207;32.078;34.818;2023-03-05T11:54:57;100331.91;;;33.37;25.45
23619;BME280;18207;32.078;34.818;2023-03-05T11:57:40;100326.25;;;33.34;25.38
23619;BME280;18207;32.078;34.818;2023-03-05T12:00:20;100321.41;;;33.31;25.70
23619;BME280;18207;32.078;34.818;2023-03-05T12:02:56;100323.88;;;33.29;25.39
23619;BME280;18207;32.078;34.818;2023-03-05T12:05:29;100332.09;;;33.27;25.40
23619;BME280;18207;32.078;34.818;2023-03-05T12:08:02;100315.84;;;33.24;25.37
23619;BME280;18207;32.078;34.818;2023-03-05T12:10:33;100324.84;;;33.22;25.90
23619;BME280;18207;32.078;34.818;2023-03-05T12:13:12;100317.53;;;33.21;25.81
23619;BME280;18207;32.078;34.818;2023-03-05T12:16:10;100311.88;;;33.18;25.70
23619;BME280;18207;32.078;34.818;2023-03-05T12:18:59;100308.28;;;33.14;25.94
23619;BME280;18207;32.078;34.818;2023-03-05T12:21:36;100312.38;;;33.13;25.31
23619;BME280;18207;32.078;34.818;2023-03-05T12:24:36;100309.13;;;33.11;25.67
23619;BME280;18207;32.078;34.818;2023-03-05T12:27:14;100305.94;;;33.09;25.90
23619;BME280;18207;32.078;34.818;2023-03-05T12:29:48;100301.44;;;33.08;25.36
23619;BME280;18207;32.078;34.818;2023-03-05T12:32:51;100295.75;;;33.08;25.32
23619;BME280;18207;32.078;34.818;2023-03-05T12:35:29;100297.78;;;33.08;25.23
23619;BME280;18207;32.078;34.818;2023-03-05T12:38:15;100283.97;;;33.06;25.59
23619;BME280;18207;32.078;34.818;2023-03-05T12:41:42;100279.13;;;33.03;25.10
23619;BME280;18207;32.078;34.818;2023-03-05T12:44:22;100278.69;;;33.05;25.04
23619;BME280;18207;32.078;34.818;2023-03-05T12:47:16;100276.66;;;33.05;25.48
23619;BME280;18207;32.078;34.818;2023-03-05T12:49:50;100268.56;;;33.04;25.29
23619;BME280;18207;32.078;34.818;2023-03-05T12:52:28;100263.66;;;33.04;25.00
23619;BME280;18207;32.078;34.818;2023-03-05T12:55:17;100260.00;;;33.04;25.11
23619;BME280;18207;32.078;34.818;2023-03-05T12:57:57;100262.88;;;33.04;25.31
23619;BME280;18207;32.078;34.818;2023-03-05T13:00:44;100260.44;;;33.02;25.06
23619;BME280;18207;32.078;34.818;2023-03-05T13:03:20;100260.88;;;33.01;25.47
23619;BME280;18207;32.078;34.818;2023-03-05T13:05:56;100251.16;;;32.98;25.39
23619;BME280;18207;32.078;34.818;2023-03-05T13:08:30;100246.69;;;32.97;25.12
23619;BME280;18207;32.078;34.818;2023-03-05T13:11:07;100239.78;;;32.95;24.86
23619;BME280;18207;32.078;34.818;2023-03-05T13:13:43;100245.13;;;32.93;25.08
23619;BME280;18207;32.078;34.818;2023-03-05T13:16:18;100239.06;;;32.91;25.01
23619;BME280;18207;32.078;34.818;2023-03-05T13:18:51;100234.22;;;32.88;24.78
23619;BME280;18207;32.078;34.818;2023-03-05T13:21:26;100231.00;;;32.86;24.85